sensor_id;sensor_type;location;lat;lon;timestamp;P1;durP1;ratioP1;P2;durP2;ratioP2
30458;SDS011;74163;50.912;6.918;2023-11-18T00:00:10;59.40;;;27.95;;
30458;SDS011;74163;50.912;6.918;2023-11-18T00:00:44;54.92;;;25.15;;
30458;SDS011;74163;50.912;6.918;2023-11-18T00:01:16;53.75;;;27.25;;
30458;SDS011;74163;50.912;6.918;2023-11-18T00:01:48;44.95;;;25.40;;
30458;SDS011;74163;50.912;6.918;2023-11-18T00:02:20;54.42;;;26.10;;
30458;SDS011;74163;50.912;6.918;2023-11-18T00:02:52;53.83;;;26.20;;
30458;SDS011;74163;50.912;6.918;2023-11-18T00:03:24;52.22;;;26.80;;
30458;SDS011;74163;50.912;6.918;2023-11-18T00:03:56;44.85;;;24.75;;
30458;SDS011;74163;50.912;6.918;2023-11-18T00:04:28;49.08;;;25.55;;
30458;SDS011;74163;50.912;6.918;2023-11-18T00:04:59;60.50;;;26.75;;
30458;SDS011;74163;50.912;6.918;2023-11-18T00:05:31;50.28;;;25.52;;
30458;SDS011;74163;50.912;6.918;2023-11-18T00:06:03;48.47;;;25.08;;
30458;SDS011;74163;50.912;6.918;2023-11-18T00:06:35;56.88;;;25.65;;
30458;SDS011;74163;50.912;6.918;2023-11-18T00:07:07;50.63;;;24.75;;
30458;SDS011;74163;50.912;6.918;2023-11-18T00:07:39;54.97;;;25.83;;
30458;SDS011;74163;50.912;6.918;2023-11-18T00:08:12;43.88;;;23.85;;
30458;SDS011;74163;50.912;6.918;2023-11-18T00:08:43;52.30;;;24.45;;
30458;SDS011;74163;50.912;6.918;2023-11-18T00:09:15;51.88;;;25.25;;
30458;SDS011;74163;50.912;6.918;2023-11-18T00:09:47;50.03;;;23.83;;
30458;SDS011;74163;50.912;6.918;2023-11-18T00:10:19;52.95;;;24.98;;
30458;SDS011;74163;50.912;6.918;2023-11-18T00:10:50;46.40;;;24.15;;
30458;SDS011;74163;50.912;6.918;2023-11-18T00:11:22;55.97;;;26.05;;
30458;SDS011;74163;50.912;6.918;2023-11-18T00:11:54;51.78;;;26.30;;
30458;SDS011;74163;50.912;6.918;2023-11-18T00:12:26;65.18;;;28.55;;
30458;SDS011;74163;50.912;6.918;2023-11-18T00:12:58;56.10;;;27.02;;
30458;SDS011;74163;50.912;6.918;2023-11-18T00:13:30;61.27;;;26.73;;
30458;SDS011;74163;50.912;6.918;2023-11-18T00:14:02;54.28;;;26.48;;
30458;SDS011;74163;50.912;6.918;2023-11-18T00:14:34;56.63;;;26.60;;
30458;SDS011;74163;50.912;6.918;2023-11-18T00:15:08;58.75;;;26.98;;
30458;SDS011;74163;50.912;6.918;2023-11-18T00:15:46;61.95;;;27.88;;
30458;SDS011;74163;50.912;6.918;2023-11-18T00:16:23;57.40;;;27.45;;
30458;SDS011;74163;50.912;6.918;2023-11-18T00:16:59;58.72;;;28.35;;
30458;SDS011;74163;50.912;6.918;2023-11-18T00:17:32;66.88;;;29.60;;
30458;SDS011;74163;50.912;6.918;2023-11-18T00:18:07;75.03;;;30.15;;
30458;SDS011;74163;50.912;6.918;2023-11-18T00:18:41;68.28;;;29.08;;
30458;SDS011;74163;50.912;6.918;2023-11-18T00:19:16;81.18;;;32.00;;
30458;SDS011;74163;50.912;6.918;2023-11-18T00:19:47;73.07;;;30.95;;
30458;SDS011;74163;50.912;6.918;2023-11-18T00:20:19;79.25;;;32.58;;
30458;SDS011;74163;50.912;6.918;2023-11-18T00:20:51;74.72;;;32.08;;
30458;SDS011;74163;50.912;6.918;2023-11-18T00:21:23;78.20;;;32.13;;
30458;SDS011;74163;50.912;6.918;2023-11-18T00:21:54;83.57;;;33.00;;
30458;SDS011;74163;50.912;6.918;2023-11-18T00:22:26;82.57;;;33.30;;
30458;SDS011;74163;50.912;6.918;2023-11-18T00:22:58;82.32;;;32.53;;
30458;SDS011;74163;50.912;6.918;2023-11-18T00:23:30;67.25;;;30.63;;
30458;SDS011;74163;50.912;6.918;2023-11-18T00:24:02;72.43;;;31.65;;
30458;SDS011;74163;50.912;6.918;2023-11-18T00:24:34;71.47;;;31.52;;
30458;SDS011;74163;50.912;6.918;2023-11-18T00:25:06;71.97;;;30.67;;
30458;SDS011;74163;50.912;6.918;2023-11-18T00:25:38;76.45;;;31.77;;
30458;SDS011;74163;50.912;6.918;2023-11-18T00:26:10;83.30;;;32.40;;
30458;SDS011;74163;50.912;6.918;2023-11-18T00:26:42;72.72;;;31.20;;
30458;SDS011;74163;50.912;6.918;2023-11-18T00:27:14;69.95;;;31.10;;
30458;SDS011;74163;50.912;6.918;2023-11-18T00:27:46;79.88;;;32.05;;
30458;SDS011;74163;50.912;6.918;2023-11-18T00:28:19;70.47;;;31.20;;
30458;SDS011;74163;50.912;6.918;2023-11-18T00:28:51;73.25;;;31.50;;
30458;SDS011;74163;50.912;6.918;2023-11-18T00:29:23;73.05;;;30.77;;
30458;SDS011;74163;50.912;6.918;2023-11-18T00:29:54;81.95;;;31.25;;
30458;SDS011;74163;50.912;6.918;2023-11-18T00:30:26;81.60;;;31.80;;
30458;SDS011;74163;50.912;6.918;2023-11-18T00:30:59;82.20;;;31.30;;
30458;SDS011;74163;50.912;6.918;2023-11-18T00:31:31;75.15;;;32.70;;
30458;SDS011;74163;50.912;6.918;2023-11-18T00:32:03;80.85;;;31.63;;
30458;SDS011;74163;50.912;6.918;2023-11-18T00:32:36;69.05;;;32.63;;
30458;SDS011;74163;50.912;6.918;2023-11-18T00:33:08;69.60;;;30.10;;
30458;SDS011;74163;50.912;6.918;2023-11-18T00:33:40;68.90;;;30.45;;
30458;SDS011;74163;50.912;6.918;2023-11-18T00:34:12;75.53;;;31.50;;
30458;SDS011;74163;50.912;6.918;2023-11-18T00:34:43;70.75;;;29.80;;
30458;SDS011;74163;50.912;6.918;2023-11-18T00:35:16;62.28;;;29.50;;
30458;SDS011;74163;50.912;6.918;2023-11-18T00:35:48;71.10;;;30.60;;
30458;SDS011;74163;50.912;6.918;2023-11-18T00:36:20;67.60;;;29.75;;
30458;SDS011;74163;50.912;6.918;2023-11-18T00:36:52;62.45;;;29.65;;
30458;SDS011;74163;50.912;6.918;2023-11-18T00:37:24;66.72;;;29.80;;
30458;SDS011;74163;50.912;6.918;2023-11-18T00:37:56;67.78;;;31.35;;
30458;SDS011;74163;50.912;6.918;2023-11-18T00:38:28;68.47;;;29.13;;
30458;SDS011;74163;50.912;6.918;2023-11-18T00:38:59;72.45;;;29.15;;
30458;SDS011;74163;50.912;6.918;2023-11-18T00:39:31;71.50;;;29.42;;
30458;SDS011;74163;50.912;6.918;2023-11-18T00:40:03;71.47;;;29.45;;
30458;SDS011;74163;50.912;6.918;2023-11-18T00:40:36;69.72;;;30.63;;
30458;SDS011;74163;50.912;6.918;2023-11-18T00:41:08;73.15;;;30.15;;
30458;SDS011;74163;50.912;6.918;2023-11-18T00:41:40;71.20;;;29.57;;
30458;SDS011;74163;50.912;6.918;2023-11-18T00:42:11;75.15;;;29.95;;
30458;SDS011;74163;50.912;6.918;2023-11-18T00:42:43;75.05;;;31.55;;
30458;SDS011;74163;50.912;6.918;2023-11-18T00:43:15;71.18;;;30.15;;
30458;SDS011;74163;50.912;6.918;2023-11-18T00:43:47;78.72;;;30.52;;
30458;SDS011;74163;50.912;6.918;2023-11-18T00:44:18;74.88;;;31.60;;
30458;SDS011;74163;50.912;6.918;2023-11-18T00:44:50;77.30;;;31.90;;
30458;SDS011;74163;50.912;6.918;2023-11-18T00:45:22;73.80;;;32.35;;
30458;SDS011;74163;50.912;6.918;2023-11-18T00:45:54;84.07;;;30.90;;
30458;SDS011;74163;50.912;6.918;2023-11-18T00:46:27;79.35;;;31.52;;
30458;SDS011;74163;50.912;6.918;2023-11-18T00:46:59;81.15;;;32.15;;
30458;SDS011;74163;50.912;6.918;2023-11-18T00:47:31;81.93;;;32.50;;
30458;SDS011;74163;50.912;6.918;2023-11-18T00:48:03;82.40;;;33.47;;
30458;SDS011;74163;50.912;6.918;2023-11-18T00:48:35;83.00;;;33.88;;
30458;SDS011;74163;50.912;6.918;2023-11-18T00:49:07;90.65;;;35.70;;
30458;SDS011;74163;50.912;6.918;2023-11-18T00:49:39;95.35;;;34.50;;
30458;SDS011;74163;50.912;6.918;2023-11-18T00:50:11;94.68;;;34.90;;
30458;SDS011;74163;50.912;6.918;2023-11-18T00:50:42;87.45;;;32.97;;
30458;SDS011;74163;50.912;6.918;2023-11-18T00:51:14;92.55;;;34.03;;
30458;SDS011;74163;50.912;6.918;2023-11-18T00:51:47;85.13;;;33.65;;
30458;SDS011;74163;50.912;6.918;2023-11-18T00:52:18;87.43;;;34.83;;
30458;SDS011;74163;50.912;6.918;2023-11-18T00:52:50;84.28;;;33.85;;
30458;SDS011;74163;50.912;6.918;2023-11-18T00:53:22;92.47;;;35.10;;
30458;SDS011;74163;50.912;6.918;2023-11-18T00:53:54;89.25;;;33.40;;
30458;SDS011;74163;50.912;6.918;2023-11-18T00:54:26;89.30;;;35.47;;
30458;SDS011;74163;50.912;6.918;2023-11-18T00:54:58;84.95;;;35.05;;
30458;SDS011;74163;50.912;6.918;2023-11-18T00:55:30;83.80;;;33.42;;
30458;SDS011;74163;50.912;6.918;2023-11-18T00:56:02;92.10;;;33.95;;
30458;SDS011;74163;50.912;6.918;2023-11-18T00:56:34;89.75;;;34.03;;
30458;SDS011;74163;50.912;6.918;2023-11-18T00:57:06;90.82;;;34.90;;
30458;SDS011;74163;50.912;6.918;2023-11-18T00:57:37;88.90;;;31.90;;
30458;SDS011;74163;50.912;6.918;2023-11-18T00:58:09;81.68;;;32.97;;
30458;SDS011;74163;50.912;6.918;2023-11-18T00:58:41;85.35;;;33.80;;
30458;SDS011;74163;50.912;6.918;2023-11-18T00:59:12;84.53;;;32.73;;
30458;SDS011;74163;50.912;6.918;2023-11-18T00:59:44;83.93;;;33.30;;
30458;SDS011;74163;50.912;6.918;2023-11-18T01:00:16;89.70;;;33.50;;
30458;SDS011;74163;50.912;6.918;2023-11-18T01:00:48;85.57;;;34.50;;
30458;SDS011;74163;50.912;6.918;2023-11-18T01:01:20;89.47;;;32.73;;
30458;SDS011;74163;50.912;6.918;2023-11-18T01:01:53;85.90;;;33.80;;
30458;SDS011;74163;50.912;6.918;2023-11-18T01:02:25;91.47;;;34.53;;
30458;SDS011;74163;50.912;6.918;2023-11-18T01:02:57;87.63;;;34.88;;
30458;SDS011;74163;50.912;6.918;2023-11-18T01:03:29;99.28;;;35.75;;
30458;SDS011;74163;50.912;6.918;2023-11-18T01:04:01;94.15;;;35.67;;
30458;SDS011;74163;50.912;6.918;2023-11-18T01:04:32;87.47;;;34.17;;
30458;SDS011;74163;50.912;6.918;2023-11-18T01:05:04;92.35;;;34.88;;
30458;SDS011;74163;50.912;6.918;2023-11-18T01:05:36;101.78;;;35.53;;
30458;SDS011;74163;50.912;6.918;2023-11-18T01:06:08;96.97;;;35.17;;
30458;SDS011;74163;50.912;6.918;2023-11-18T01:06:41;93.53;;;34.08;;
30458;SDS011;74163;50.912;6.918;2023-11-18T01:07:13;90.60;;;34.33;;
30458;SDS011;74163;50.912;6.918;2023-11-18T01:07:45;94.63;;;33.92;;
30458;SDS011;74163;50.912;6.918;2023-11-18T01:08:17;97.43;;;35.60;;
30458;SDS011;74163;50.912;6.918;2023-11-18T01:08:49;97.22;;;33.95;;
30458;SDS011;74163;50.912;6.918;2023-11-18T01:09:21;90.50;;;34.78;;
30458;SDS011;74163;50.912;6.918;2023-11-18T01:09:53;98.47;;;36.45;;
30458;SDS011;74163;50.912;6.918;2023-11-18T01:10:25;94.97;;;34.75;;
30458;SDS011;74163;50.912;6.918;2023-11-18T01:10:56;94.00;;;33.80;;
30458;SDS011;74163;50.912;6.918;2023-11-18T01:11:28;94.57;;;36.17;;
30458;SDS011;74163;50.912;6.918;2023-11-18T01:12:00;93.70;;;36.58;;
30458;SDS011;74163;50.912;6.918;2023-11-18T01:12:39;92.77;;;34.73;;
30458;SDS011;74163;50.912;6.918;2023-11-18T01:13:11;86.60;;;35.40;;
30458;SDS011;74163;50.912;6.918;2023-11-18T01:13:43;95.30;;;35.28;;
30458;SDS011;74163;50.912;6.918;2023-11-18T01:14:15;86.75;;;34.78;;
30458;SDS011;74163;50.912;6.918;2023-11-18T01:14:47;89.40;;;35.65;;
30458;SDS011;74163;50.912;6.918;2023-11-18T01:15:19;91.80;;;36.15;;
30458;SDS011;74163;50.912;6.918;2023-11-18T01:15:51;91.07;;;35.25;;
30458;SDS011;74163;50.912;6.918;2023-11-18T01:16:23;93.07;;;36.83;;
30458;SDS011;74163;50.912;6.918;2023-11-18T01:16:57;94.15;;;35.67;;
30458;SDS011;74163;50.912;6.918;2023-11-18T01:17:29;81.65;;;33.90;;
30458;SDS011;74163;50.912;6.918;2023-11-18T01:18:01;88.10;;;33.38;;
30458;SDS011;74163;50.912;6.918;2023-11-18T01:18:32;84.03;;;34.40;;
30458;SDS011;74163;50.912;6.918;2023-11-18T01:19:05;86.70;;;34.22;;
30458;SDS011;74163;50.912;6.918;2023-11-18T01:19:37;81.55;;;34.50;;
30458;SDS011;74163;50.912;6.918;2023-11-18T01:20:09;84.68;;;35.22;;
30458;SDS011;74163;50.912;6.918;2023-11-18T01:20:42;86.33;;;34.60;;
30458;SDS011;74163;50.912;6.918;2023-11-18T01:21:14;96.32;;;35.58;;
30458;SDS011;74163;50.912;6.918;2023-11-18T01:21:46;91.30;;;33.40;;
30458;SDS011;74163;50.912;6.918;2023-11-18T01:22:18;89.32;;;34.80;;
30458;SDS011;74163;50.912;6.918;2023-11-18T01:22:50;92.37;;;35.03;;
30458;SDS011;74163;50.912;6.918;2023-11-18T01:23:21;92.75;;;35.30;;
30458;SDS011;74163;50.912;6.918;2023-11-18T01:23:53;90.30;;;34.90;;
30458;SDS011;74163;50.912;6.918;2023-11-18T01:24:25;86.40;;;34.58;;
30458;SDS011;74163;50.912;6.918;2023-11-18T01:24:57;91.80;;;34.58;;
30458;SDS011;74163;50.912;6.918;2023-11-18T01:25:28;92.15;;;34.95;;
30458;SDS011;74163;50.912;6.918;2023-11-18T01:26:00;101.75;;;35.60;;
30458;SDS011;74163;50.912;6.918;2023-11-18T01:26:32;96.85;;;35.53;;
30458;SDS011;74163;50.912;6.918;2023-11-18T01:27:04;97.25;;;35.28;;
30458;SDS011;74163;50.912;6.918;2023-11-18T01:27:36;94.78;;;34.92;;
30458;SDS011;74163;50.912;6.918;2023-11-18T01:28:08;88.28;;;34.42;;
30458;SDS011;74163;50.912;6.918;2023-11-18T01:28:39;90.47;;;34.70;;
30458;SDS011;74163;50.912;6.918;2023-11-18T01:29:11;85.57;;;35.43;;
30458;SDS011;74163;50.912;6.918;2023-11-18T01:29:43;91.78;;;35.72;;
30458;SDS011;74163;50.912;6.918;2023-11-18T01:30:15;97.38;;;35.25;;
30458;SDS011;74163;50.912;6.918;2023-11-18T01:30:47;91.57;;;35.35;;
30458;SDS011;74163;50.912;6.918;2023-11-18T01:31:18;87.77;;;34.53;;
30458;SDS011;74163;50.912;6.918;2023-11-18T01:31:50;88.55;;;35.38;;
30458;SDS011;74163;50.912;6.918;2023-11-18T01:32:24;90.35;;;36.15;;
30458;SDS011;74163;50.912;6.918;2023-11-18T01:32:56;89.10;;;35.77;;
30458;SDS011;74163;50.912;6.918;2023-11-18T01:33:28;92.80;;;35.38;;
30458;SDS011;74163;50.912;6.918;2023-11-18T01:34:00;87.35;;;35.60;;
30458;SDS011;74163;50.912;6.918;2023-11-18T01:34:32;93.07;;;35.75;;
30458;SDS011;74163;50.912;6.918;2023-11-18T01:35:04;92.18;;;35.47;;
30458;SDS011;74163;50.912;6.918;2023-11-18T01:35:36;93.43;;;36.08;;
30458;SDS011;74163;50.912;6.918;2023-11-18T01:36:08;94.70;;;35.83;;
30458;SDS011;74163;50.912;6.918;2023-11-18T01:36:40;87.38;;;34.83;;
30458;SDS011;74163;50.912;6.918;2023-11-18T01:37:12;96.82;;;36.65;;
30458;SDS011;74163;50.912;6.918;2023-11-18T01:37:44;102.88;;;37.42;;
30458;SDS011;74163;50.912;6.918;2023-11-18T01:38:16;103.00;;;37.30;;
30458;SDS011;74163;50.912;6.918;2023-11-18T01:38:48;96.97;;;36.60;;
30458;SDS011;74163;50.912;6.918;2023-11-18T01:39:20;94.23;;;35.93;;
30458;SDS011;74163;50.912;6.918;2023-11-18T01:39:52;84.70;;;36.10;;
30458;SDS011;74163;50.912;6.918;2023-11-18T01:40:24;90.03;;;35.47;;
30458;SDS011;74163;50.912;6.918;2023-11-18T01:40:55;85.95;;;35.03;;
30458;SDS011;74163;50.912;6.918;2023-11-18T01:41:27;84.57;;;34.78;;
30458;SDS011;74163;50.912;6.918;2023-11-18T01:41:59;87.60;;;33.58;;
30458;SDS011;74163;50.912;6.918;2023-11-18T01:42:34;86.28;;;34.53;;
30458;SDS011;74163;50.912;6.918;2023-11-18T01:43:08;84.75;;;34.15;;
30458;SDS011;74163;50.912;6.918;2023-11-18T01:43:40;85.43;;;35.28;;
30458;SDS011;74163;50.912;6.918;2023-11-18T01:44:12;81.50;;;35.13;;
30458;SDS011;74163;50.912;6.918;2023-11-18T01:44:43;81.85;;;32.83;;
30458;SDS011;74163;50.912;6.918;2023-11-18T01:45:16;78.63;;;33.05;;
30458;SDS011;74163;50.912;6.918;2023-11-18T01:45:48;78.80;;;33.63;;
30458;SDS011;74163;50.912;6.918;2023-11-18T01:46:20;80.18;;;34.53;;
30458;SDS011;74163;50.912;6.918;2023-11-18T01:46:51;86.90;;;34.55;;
30458;SDS011;74163;50.912;6.918;2023-11-18T01:47:25;85.18;;;35.33;;
30458;SDS011;74163;50.912;6.918;2023-11-18T01:47:58;79.80;;;33.38;;
30458;SDS011;74163;50.912;6.918;2023-11-18T01:48:30;83.88;;;34.10;;
30458;SDS011;74163;50.912;6.918;2023-11-18T01:49:02;79.10;;;34.35;;
30458;SDS011;74163;50.912;6.918;2023-11-18T01:49:34;81.45;;;33.75;;
30458;SDS011;74163;50.912;6.918;2023-11-18T01:50:08;84.45;;;34.78;;
30458;SDS011;74163;50.912;6.918;2023-11-18T01:50:41;82.95;;;33.15;;
30458;SDS011;74163;50.912;6.918;2023-11-18T01:51:14;78.32;;;32.85;;
30458;SDS011;74163;50.912;6.918;2023-11-18T01:51:47;74.85;;;32.75;;
30458;SDS011;74163;50.912;6.918;2023-11-18T01:52:19;80.63;;;32.35;;
30458;SDS011;74163;50.912;6.918;2023-11-18T01:52:50;80.10;;;33.58;;
30458;SDS011;74163;50.912;6.918;2023-11-18T01:53:23;75.05;;;32.60;;
30458;SDS011;74163;50.912;6.918;2023-11-18T01:53:55;81.93;;;32.42;;
30458;SDS011;74163;50.912;6.918;2023-11-18T01:54:30;76.70;;;32.88;;
30458;SDS011;74163;50.912;6.918;2023-11-18T01:55:02;78.90;;;33.08;;
30458;SDS011;74163;50.912;6.918;2023-11-18T01:55:34;77.82;;;33.83;;
30458;SDS011;74163;50.912;6.918;2023-11-18T01:56:07;74.43;;;32.90;;
30458;SDS011;74163;50.912;6.918;2023-11-18T01:56:39;76.00;;;32.30;;
30458;SDS011;74163;50.912;6.918;2023-11-18T01:57:10;78.50;;;32.75;;
30458;SDS011;74163;50.912;6.918;2023-11-18T01:57:42;78.03;;;32.72;;
30458;SDS011;74163;50.912;6.918;2023-11-18T01:58:15;79.28;;;31.98;;
30458;SDS011;74163;50.912;6.918;2023-11-18T01:58:47;69.15;;;31.48;;
30458;SDS011;74163;50.912;6.918;2023-11-18T01:59:19;74.18;;;32.75;;
30458;SDS011;74163;50.912;6.918;2023-11-18T01:59:52;73.45;;;32.15;;
30458;SDS011;74163;50.912;6.918;2023-11-18T02:00:24;66.80;;;30.33;;
30458;SDS011;74163;50.912;6.918;2023-11-18T02:00:56;69.45;;;31.13;;
30458;SDS011;74163;50.912;6.918;2023-11-18T02:01:28;68.80;;;30.27;;
30458;SDS011;74163;50.912;6.918;2023-11-18T02:02:01;73.20;;;33.30;;
30458;SDS011;74163;50.912;6.918;2023-11-18T02:02:34;73.53;;;31.83;;
30458;SDS011;74163;50.912;6.918;2023-11-18T02:03:06;72.50;;;31.88;;
30458;SDS011;74163;50.912;6.918;2023-11-18T02:03:38;70.10;;;32.53;;
30458;SDS011;74163;50.912;6.918;2023-11-18T02:04:10;75.20;;;32.97;;
30458;SDS011;74163;50.912;6.918;2023-11-18T02:04:42;78.57;;;33.53;;
30458;SDS011;74163;50.912;6.918;2023-11-18T02:05:14;73.75;;;33.38;;
30458;SDS011;74163;50.912;6.918;2023-11-18T02:05:46;76.75;;;33.38;;
30458;SDS011;74163;50.912;6.918;2023-11-18T02:06:18;75.83;;;33.07;;
30458;SDS011;74163;50.912;6.918;2023-11-18T02:06:50;77.38;;;33.00;;
30458;SDS011;74163;50.912;6.918;2023-11-18T02:07:23;73.90;;;32.42;;
30458;SDS011;74163;50.912;6.918;2023-11-18T02:07:55;71.53;;;33.08;;
30458;SDS011;74163;50.912;6.918;2023-11-18T02:08:27;70.93;;;31.90;;
30458;SDS011;74163;50.912;6.918;2023-11-18T02:08:59;72.65;;;33.15;;
30458;SDS011;74163;50.912;6.918;2023-11-18T02:09:31;71.07;;;32.22;;
30458;SDS011;74163;50.912;6.918;2023-11-18T02:10:03;73.35;;;32.97;;
30458;SDS011;74163;50.912;6.918;2023-11-18T02:10:35;70.97;;;31.85;;
30458;SDS011;74163;50.912;6.918;2023-11-18T02:11:17;71.38;;;30.98;;
30458;SDS011;74163;50.912;6.918;2023-11-18T02:11:56;69.03;;;30.90;;
30458;SDS011;74163;50.912;6.918;2023-11-18T02:12:33;66.45;;;31.38;;
30458;SDS011;74163;50.912;6.918;2023-11-18T02:13:17;70.03;;;31.48;;
30458;SDS011;74163;50.912;6.918;2023-11-18T02:13:53;65.25;;;31.27;;
30458;SDS011;74163;50.912;6.918;2023-11-18T02:14:27;62.80;;;29.43;;
30458;SDS011;74163;50.912;6.918;2023-11-18T02:15:01;66.00;;;30.35;;
30458;SDS011;74163;50.912;6.918;2023-11-18T02:15:36;66.40;;;30.67;;
30458;SDS011;74163;50.912;6.918;2023-11-18T02:16:10;65.93;;;31.37;;
30458;SDS011;74163;50.912;6.918;2023-11-18T02:16:42;62.28;;;28.90;;
30458;SDS011;74163;50.912;6.918;2023-11-18T02:17:17;63.70;;;30.90;;
30458;SDS011;74163;50.912;6.918;2023-11-18T02:17:53;64.07;;;30.30;;
30458;SDS011;74163;50.912;6.918;2023-11-18T02:18:26;63.53;;;29.98;;
30458;SDS011;74163;50.912;6.918;2023-11-18T02:19:00;65.53;;;30.70;;
30458;SDS011;74163;50.912;6.918;2023-11-18T02:19:34;60.97;;;30.67;;
30458;SDS011;74163;50.912;6.918;2023-11-18T02:20:07;63.50;;;30.77;;
30458;SDS011;74163;50.912;6.918;2023-11-18T02:20:41;67.65;;;30.63;;
30458;SDS011;74163;50.912;6.918;2023-11-18T02:21:15;58.85;;;29.85;;
30458;SDS011;74163;50.912;6.918;2023-11-18T02:21:47;60.10;;;29.30;;
30458;SDS011;74163;50.912;6.918;2023-11-18T02:22:20;61.35;;;30.27;;
30458;SDS011;74163;50.912;6.918;2023-11-18T02:22:53;61.28;;;29.13;;
30458;SDS011;74163;50.912;6.918;2023-11-18T02:23:26;57.08;;;28.50;;
30458;SDS011;74163;50.912;6.918;2023-11-18T02:23:58;60.72;;;29.05;;
30458;SDS011;74163;50.912;6.918;2023-11-18T02:24:31;62.63;;;30.17;;
30458;SDS011;74163;50.912;6.918;2023-11-18T02:25:03;58.60;;;28.45;;
30458;SDS011;74163;50.912;6.918;2023-11-18T02:25:43;58.75;;;28.08;;
30458;SDS011;74163;50.912;6.918;2023-11-18T02:26:20;59.65;;;28.35;;
30458;SDS011;74163;50.912;6.918;2023-11-18T02:26:52;56.08;;;28.63;;
30458;SDS011;74163;50.912;6.918;2023-11-18T02:27:24;53.47;;;27.75;;
30458;SDS011;74163;50.912;6.918;2023-11-18T02:27:56;57.00;;;27.90;;
30458;SDS011;74163;50.912;6.918;2023-11-18T02:28:28;56.97;;;27.75;;
30458;SDS011;74163;50.912;6.918;2023-11-18T02:29:00;55.67;;;29.08;;
30458;SDS011;74163;50.912;6.918;2023-11-18T02:29:34;54.53;;;27.50;;
30458;SDS011;74163;50.912;6.918;2023-11-18T02:30:09;54.38;;;27.67;;
30458;SDS011;74163;50.912;6.918;2023-11-18T02:30:42;57.70;;;27.15;;
30458;SDS011;74163;50.912;6.918;2023-11-18T02:31:15;56.05;;;28.15;;
30458;SDS011;74163;50.912;6.918;2023-11-18T02:31:52;60.55;;;29.20;;
30458;SDS011;74163;50.912;6.918;2023-11-18T02:32:28;58.28;;;28.17;;
30458;SDS011;74163;50.912;6.918;2023-11-18T02:33:07;52.60;;;27.23;;
30458;SDS011;74163;50.912;6.918;2023-11-18T02:33:47;54.78;;;27.27;;
30458;SDS011;74163;50.912;6.918;2023-11-18T02:34:27;54.05;;;27.10;;
30458;SDS011;74163;50.912;6.918;2023-11-18T02:35:02;54.30;;;27.52;;
30458;SDS011;74163;50.912;6.918;2023-11-18T02:35:44;54.72;;;27.92;;
30458;SDS011;74163;50.912;6.918;2023-11-18T02:36:20;55.92;;;27.52;;
30458;SDS011;74163;50.912;6.918;2023-11-18T02:36:57;60.00;;;28.83;;
30458;SDS011;74163;50.912;6.918;2023-11-18T02:37:31;57.03;;;27.98;;
30458;SDS011;74163;50.912;6.918;2023-11-18T02:38:04;59.17;;;28.58;;
30458;SDS011;74163;50.912;6.918;2023-11-18T02:38:39;54.20;;;27.27;;
30458;SDS011;74163;50.912;6.918;2023-11-18T02:39:16;58.03;;;27.10;;
30458;SDS011;74163;50.912;6.918;2023-11-18T02:39:53;58.63;;;27.15;;
30458;SDS011;74163;50.912;6.918;2023-11-18T02:40:32;59.55;;;27.92;;
30458;SDS011;74163;50.912;6.918;2023-11-18T02:41:09;59.25;;;29.15;;
30458;SDS011;74163;50.912;6.918;2023-11-18T02:41:44;57.88;;;27.75;;
30458;SDS011;74163;50.912;6.918;2023-11-18T02:42:21;56.75;;;28.08;;
30458;SDS011;74163;50.912;6.918;2023-11-18T02:42:53;59.55;;;27.48;;
30458;SDS011;74163;50.912;6.918;2023-11-18T02:43:25;58.92;;;27.98;;
30458;SDS011;74163;50.912;6.918;2023-11-18T02:43:58;61.97;;;29.55;;
30458;SDS011;74163;50.912;6.918;2023-11-18T02:44:30;61.03;;;28.65;;
30458;SDS011;74163;50.912;6.918;2023-11-18T02:45:04;58.97;;;28.92;;
30458;SDS011;74163;50.912;6.918;2023-11-18T02:45:38;54.30;;;27.35;;
30458;SDS011;74163;50.912;6.918;2023-11-18T02:46:10;59.10;;;27.80;;
30458;SDS011;74163;50.912;6.918;2023-11-18T02:46:44;53.35;;;27.25;;
30458;SDS011;74163;50.912;6.918;2023-11-18T02:47:16;56.58;;;29.08;;
30458;SDS011;74163;50.912;6.918;2023-11-18T02:47:48;57.38;;;28.58;;
30458;SDS011;74163;50.912;6.918;2023-11-18T02:48:19;55.75;;;28.02;;
30458;SDS011;74163;50.912;6.918;2023-11-18T02:48:51;61.03;;;28.52;;
30458;SDS011;74163;50.912;6.918;2023-11-18T02:49:23;55.55;;;28.23;;
30458;SDS011;74163;50.912;6.918;2023-11-18T02:49:55;56.97;;;27.75;;
30458;SDS011;74163;50.912;6.918;2023-11-18T02:50:27;56.30;;;28.58;;
30458;SDS011;74163;50.912;6.918;2023-11-18T02:50:59;57.63;;;27.70;;
30458;SDS011;74163;50.912;6.918;2023-11-18T02:51:31;57.38;;;27.42;;
30458;SDS011;74163;50.912;6.918;2023-11-18T02:52:05;57.53;;;28.17;;
30458;SDS011;74163;50.912;6.918;2023-11-18T02:52:37;57.60;;;28.10;;
30458;SDS011;74163;50.912;6.918;2023-11-18T02:53:09;51.88;;;27.27;;
30458;SDS011;74163;50.912;6.918;2023-11-18T02:53:41;54.35;;;28.20;;
30458;SDS011;74163;50.912;6.918;2023-11-18T02:54:13;54.22;;;27.70;;
30458;SDS011;74163;50.912;6.918;2023-11-18T02:54:45;52.08;;;26.73;;
30458;SDS011;74163;50.912;6.918;2023-11-18T02:55:16;55.00;;;27.88;;
30458;SDS011;74163;50.912;6.918;2023-11-18T02:55:48;54.13;;;27.00;;
30458;SDS011;74163;50.912;6.918;2023-11-18T02:56:22;53.35;;;26.55;;
30458;SDS011;74163;50.912;6.918;2023-11-18T02:56:53;56.92;;;27.85;;
30458;SDS011;74163;50.912;6.918;2023-11-18T02:57:25;53.92;;;27.75;;
30458;SDS011;74163;50.912;6.918;2023-11-18T02:57:57;54.17;;;26.65;;
30458;SDS011;74163;50.912;6.918;2023-11-18T02:58:29;56.87;;;27.80;;
30458;SDS011;74163;50.912;6.918;2023-11-18T02:59:01;51.92;;;25.83;;
30458;SDS011;74163;50.912;6.918;2023-11-18T02:59:33;51.28;;;26.77;;
30458;SDS011;74163;50.912;6.918;2023-11-18T03:00:05;50.90;;;26.67;;
30458;SDS011;74163;50.912;6.918;2023-11-18T03:00:38;51.63;;;26.05;;
30458;SDS011;74163;50.912;6.918;2023-11-18T03:01:10;51.20;;;26.02;;
30458;SDS011;74163;50.912;6.918;2023-11-18T03:01:41;51.10;;;26.70;;
30458;SDS011;74163;50.912;6.918;2023-11-18T03:02:13;54.50;;;26.93;;
30458;SDS011;74163;50.912;6.918;2023-11-18T03:02:45;50.25;;;26.80;;
30458;SDS011;74163;50.912;6.918;2023-11-18T03:03:17;56.47;;;26.77;;
30458;SDS011;74163;50.912;6.918;2023-11-18T03:03:49;50.58;;;27.05;;
30458;SDS011;74163;50.912;6.918;2023-11-18T03:04:21;56.22;;;27.38;;
30458;SDS011;74163;50.912;6.918;2023-11-18T03:04:52;51.45;;;26.55;;
30458;SDS011;74163;50.912;6.918;2023-11-18T03:05:24;51.10;;;26.88;;
30458;SDS011;74163;50.912;6.918;2023-11-18T03:05:57;55.72;;;27.83;;
30458;SDS011;74163;50.912;6.918;2023-11-18T03:06:29;57.22;;;27.63;;
30458;SDS011;74163;50.912;6.918;2023-11-18T03:07:01;55.50;;;27.55;;
30458;SDS011;74163;50.912;6.918;2023-11-18T03:07:32;53.17;;;26.83;;
30458;SDS011;74163;50.912;6.918;2023-11-18T03:08:04;54.72;;;27.70;;
30458;SDS011;74163;50.912;6.918;2023-11-18T03:08:36;54.13;;;27.80;;
30458;SDS011;74163;50.912;6.918;2023-11-18T03:09:08;53.10;;;27.17;;
30458;SDS011;74163;50.912;6.918;2023-11-18T03:09:40;57.00;;;29.17;;
30458;SDS011;74163;50.912;6.918;2023-11-18T03:10:12;58.15;;;28.75;;
30458;SDS011;74163;50.912;6.918;2023-11-18T03:10:44;59.63;;;28.00;;